Time;durP1;ratioP1;P1;durP2;ratioP2;P2;SDS_P1;SDS_P2;PMS_P1;PMS_P2;Temp;Humidity;BMP_temperature;BMP_pressure;BME280_temperature;BME280_humidity;BME280_pressure;Samples;Min_cycle;Max_cycle;Signal;HPM_P1;HPM_P2
2023/10/06 02:24:28;;;;;;;6.07;5.68;;;;;;;30.48;72.14;101043.25;5080680;27;44563;-38
2023/10/06 02:27:02;;;;;;;6.20;5.80;;;;;;;30.39;72.59;101038.28;5075648;27;69654;-43
2023/10/06 02:29:33;;;;;;;5.63;5.22;;;;;;;30.40;72.68;101038.06;5074026;27;66460;-38
2023/10/06 02:32:06;;;;;;;5.82;5.43;;;;;;;30.43;72.38;101042.22;5073848;28;69957;-38
2023/10/06 02:34:38;;;;;;;6.07;5.60;;;;;;;30.40;72.53;101032.66;5075711;27;65268;-37
2023/10/06 02:37:09;;;;;;;6.55;6.00;;;;;;;30.42;72.83;101025.16;5072921;27;69987;-38
2023/10/06 02:39:43;;;;;;;5.55;5.25;;;;;;;30.46;72.50;101026.38;5075321;27;66409;-38
2023/10/06 02:42:19;;;;;;;6.35;5.82;;;;;;;30.50;72.07;101027.59;5073758;28;70438;-39
2023/10/06 02:44:51;;;;;;;5.80;5.40;;;;;;;30.51;72.14;101017.63;5073758;27;65932;-37
2023/10/06 02:47:27;;;;;;;5.35;5.00;;;;;;;30.60;72.29;101024.47;5074576;27;70415;-38
2023/10/06 02:49:59;;;;;;;5.63;5.25;;;;;;;30.59;72.06;101025.50;5054951;28;66751;-38
2023/10/06 02:52:37;;;;;;;5.50;5.10;;;;;;;30.65;72.38;101019.22;5075684;28;70428;-38
2023/10/06 02:55:10;;;;;;;5.40;5.00;;;;;;;30.64;72.14;101020.25;5070640;27;66402;-39
2023/10/06 02:57:50;;;;;;;5.43;5.03;;;;;;;30.70;72.38;101022.13;5074096;28;68597;-39
2023/10/06 03:02:55;;;;;;;5.30;4.88;;;;;;;30.75;71.51;101007.09;5075427;27;70013;-38
2023/10/06 03:05:32;;;;;;;;;;;;;;;30.42;73.19;101003.50;5075969;28;66855;-38
2023/10/06 03:08:11;;;;;;;5.20;4.80;;;;;;;30.76;71.68;100998.78;5071283;28;70064;-38
2023/10/06 03:10:43;;;;;;;5.88;5.38;;;;;;;30.82;71.82;101002.53;5074205;27;65473;-39
2023/10/06 03:13:55;;;;;;;6.00;5.63;;;;;;;30.83;71.45;101001.47;5077581;27;70717;-37
2023/10/06 03:16:19;;;;;;;6.07;5.68;;;;;;;30.81;71.71;100982.69;5049558;28;65852;-38
2023/10/06 03:18:52;;;;;;;5.20;4.82;;;;;;;30.89;71.45;100987.88;5042172;28;70162;-38
2023/10/06 03:21:23;;;;;;;5.32;4.93;;;;;;;30.94;71.71;100979.09;5053898;28;66060;-45
2023/10/06 03:24:05;;;;;;;4.90;4.60;;;;;;;30.97;71.19;100972.41;5048890;28;69854;-38
2023/10/06 03:26:38;;;;;;;5.78;5.13;;;;;;;30.93;71.43;100961.19;5049974;28;65578;-39
2023/10/06 03:29:19;;;;;;;5.15;4.85;;;;;;;31.00;71.41;100956.53;5056354;28;70348;-37
2023/10/06 03:31:50;;;;;;;5.03;4.72;;;;;;;31.01;71.40;100958.22;5039765;28;66778;-38
2023/10/06 03:34:24;;;;;;;5.20;4.80;;;;;;;31.05;71.35;100956.72;5039175;28;69217;-38
2023/10/06 03:36:56;;;;;;;5.20;4.90;;;;;;;31.04;71.38;100944.22;5037216;28;65883;-37
2023/10/06 03:39:30;;;;;;;4.88;4.57;;;;;;;31.07;71.14;100941.09;5039432;28;69904;-37
2023/10/06 03:42:06;;;;;;;4.70;4.13;;;;;;;31.03;70.85;100937.13;5040593;28;65402;-37
2023/10/06 03:44:36;;;;;;;5.15;4.85;;;;;;;31.11;71.20;100926.03;5038966;28;70692;-38
2023/10/06 03:47:08;;;;;;;4.57;4.28;;;;;;;30.88;70.96;100894.13;5039522;28;65678;-38
2023/10/06 03:49:40;;;;;;;5.00;4.60;;;;;;;31.15;71.08;100929.97;5040055;28;70083;-38
2023/10/06 03:52:11;;;;;;;5.25;4.85;;;;;;;31.07;71.08;100916.69;5041024;28;65872;-38
2023/10/06 03:54:41;;;;;;;4.88;4.53;;;;;;;31.13;71.12;100912.28;5040534;28;70019;-37
2023/10/06 03:57:15;;;;;;;4.60;4.30;;;;;;;31.22;71.23;100916.34;5038672;28;65988;-38
2023/10/06 03:59:46;;;;;;;4.32;4.03;;;;;;;31.24;70.82;100916.97;5041180;28;70582;-37
2023/10/06 04:02:18;;;;;;;4.43;4.13;;;;;;;31.30;70.49;100926.91;5043255;28;66586;-38
2023/10/06 04:04:49;;;;;;;4.38;4.05;;;;;;;31.31;70.43;100920.44;5041018;28;69387;-37
2023/10/06 04:07:23;;;;;;;4.38;4.07;;;;;;;31.27;70.35;100902.16;5041222;28;66007;-38
2023/10/06 04:09:54;;;;;;;4.05;3.75;;;;;;;31.35;70.30;100904.56;5040692;28;70109;-38
2023/10/06 04:12:25;;;;;;;6.40;3.95;;;;;;;31.33;70.17;100901.25;5038644;28;66847;-38
2023/10/06 04:14:56;;;;;;;;;;;;;;;31.07;71.32;100911.28;5040636;28;69413;-37
2023/10/06 04:17:26;;;;;;;4.47;4.07;;;;;;;31.35;70.06;100904.56;5041515;28;67096;-37
2023/10/06 04:19:57;;;;;;;5.43;4.17;;;;;;;31.42;70.37;100905.34;5040138;28;70790;-40
2023/10/06 04:22:27;;;;;;;4.60;3.83;;;;;;;31.41;70.16;100892.03;5039749;28;66317;-37
2023/10/06 04:24:59;;;;;;;3.92;3.72;;;;;;;31.49;69.99;100900.72;5039253;28;70286;-38
2023/10/06 04:27:32;;;;;;;8.73;3.97;;;;;;;31.48;70.07;100888.22;5036095;28;68012;-38
2023/10/06 04:30:04;;;;;;;4.18;3.60;;;;;;;31.49;69.95;100876.31;5037245;28;70360;-37
2023/10/06 04:32:35;;;;;;;4.37;3.40;;;;;;;31.53;69.84;100877.50;5038309;28;66136;-37
2023/10/06 04:35:10;;;;;;;3.83;3.60;;;;;;;31.53;69.57;100874.78;5039452;28;69802;-37
2023/10/06 04:37:41;;;;;;;3.65;3.38;;;;;;;31.56;69.58;100874.34;5039883;28;66098;-38
2023/10/06 04:40:16;;;;;;;3.78;3.47;;;;;;;31.60;69.83;100870.13;5038306;28;69807;-38
2023/10/06 04:42:47;;;;;;;3.70;3.40;;;;;;;31.57;69.63;100859.75;5039283;28;66345;-39
2023/10/06 04:45:17;;;;;;;3.33;3.13;;;;;;;31.61;69.60;100855.50;5025737;28;70060;-39
2023/10/06 04:47:48;;;;;;;3.50;3.20;;;;;;;31.61;69.44;100850.09;5039685;28;66512;-38
2023/10/06 04:50:19;;;;;;;3.85;3.55;;;;;;;31.65;69.30;100849.63;5038641;28;69527;-38
2023/10/06 04:52:50;;;;;;;4.17;3.87;;;;;;;31.61;69.64;100831.13;5039098;28;66818;-38
2023/10/06 04:55:20;;;;;;;3.15;2.95;;;;;;;31.70;69.14;100841.66;5042170;28;69870;-37
2023/10/06 04:57:51;;;;;;;3.47;3.28;;;;;;;31.71;69.39;100843.34;5039850;28;67118;-38
2023/10/06 05:00:22;;;;;;;4.00;3.70;;;;;;;31.61;69.35;100816.72;5038228;28;69503;-40
2023/10/06 05:02:52;;;;;;;3.90;3.60;;;;;;;31.72;69.15;100824.09;5039997;28;66028;-38
2023/10/06 05:05:23;;;;;;;2.95;2.75;;;;;;;31.73;69.29;100819.50;5040267;28;70371;-38
2023/10/06 05:07:55;;;;;;;3.63;3.33;;;;;;;31.80;68.88;100822.97;5034353;28;66251;-37
2023/10/06 05:10:30;;;;;;;3.50;3.20;;;;;;;31.84;69.03;100818.72;5039959;28;70589;-38
2023/10/06 05:13:05;;;;;;;3.63;3.33;;;;;;;31.84;69.16;100818.72;5040153;28;65056;-37
2023/10/06 05:15:36;;;;;;;3.30;3.10;;;;;;;31.87;69.03;100817.44;5039368;28;70399;-38
2023/10/06 05:18:07;;;;;;;3.78;3.47;;;;;;;31.89;68.99;100812.63;5040493;28;65880;-38
2023/10/06 05:20:38;;;;;;;3.42;3.08;;;;;;;31.68;68.89;100773.25;5037687;28;70067;-37
2023/10/06 05:23:14;;;;;;;3.47;3.28;;;;;;;31.93;68.71;100809.28;5037798;28;66877;-38
2023/10/06 05:25:45;;;;;;;3.85;3.38;;;;;;;31.95;68.66;100796.28;5039218;28;70226;-38
2023/10/06 05:28:18;;;;;;;3.35;3.15;;;;;;;31.96;68.46;100800.69;5027317;28;66834;-39
2023/10/06 05:30:50;;;;;;;3.00;2.80;;;;;;;31.99;68.56;100786.66;5038350;28;70042;-38
2023/10/06 05:33:21;;;;;;;3.15;2.92;;;;;;;31.96;68.70;100770.84;5038671;28;65668;-38
2023/10/06 05:35:52;;;;;;;3.53;3.22;;;;;;;32.01;68.75;100770.97;5037579;28;71124;-37
2023/10/06 05:38:23;;;;;;;3.30;3.00;;;;;;;32.00;68.72;100758.44;5038964;28;66128;-39
2023/10/06 05:40:55;;;;;;;4.18;2.80;;;;;;;32.03;68.59;100755.28;5038669;28;70166;-38
2023/10/06 05:43:28;;;;;;;3.20;3.00;;;;;;;32.07;68.46;100752.09;5038900;28;65872;-38
2023/10/06 05:45:58;;;;;;;3.38;3.17;;;;;;;32.08;68.61;100754.59;5038821;28;70781;-39
2023/10/06 05:48:30;;;;;;;2.97;2.53;;;;;;;32.03;68.41;100741.69;5037130;28;66014;-39
2023/10/06 05:51:08;;;;;;;3.83;3.53;;;;;;;32.09;68.49;100736.41;5038990;28;70491;-39
2023/10/06 05:53:43;;;;;;;3.00;2.80;;;;;;;31.90;68.33;100689.50;5038612;28;65769;-37
2023/10/06 05:56:19;;;;;;;3.42;3.22;;;;;;;32.16;68.30;100726.28;5037992;28;71301;-38
2023/10/06 05:58:50;;;;;;;2.92;2.70;;;;;;;32.11;68.35;100718.84;5038643;28;66367;-39
2023/10/06 06:01:28;;;;;;;3.00;2.80;;;;;;;32.20;68.36;100719.31;5037018;28;69928;-37
2023/10/06 06:04:07;;;;;;;3.60;3.30;;;;;;;32.21;68.38;100716.41;5039121;28;67407;-39
2023/10/06 06:06:39;;;;;;;3.25;3.05;;;;;;;32.23;68.21;100702.56;5037543;28;70492;-39
2023/10/06 06:09:14;;;;;;;2.85;2.65;;;;;;;32.25;68.25;100697.75;5037689;28;65436;-38
2023/10/06 06:11:45;;;;;;;3.67;2.78;;;;;;;32.27;68.07;100691.03;5037825;28;70119;-38
2023/10/06 06:14:16;;;;;;;2.92;2.72;;;;;;;32.29;68.21;100682.66;5035228;28;67122;-38
2023/10/06 06:16:47;;;;;;;3.10;2.83;;;;;;;32.33;67.93;100677.59;5024835;28;69890;-38
2023/10/06 06:19:17;;;;;;;3.10;2.88;;;;;;;32.33;68.20;100678.41;5033482;28;65605;-38
2023/10/06 06:21:49;;;;;;;3.03;2.83;;;;;;;32.35;67.81;100664.59;5028501;28;70023;-38
2023/10/06 06:24:22;;;;;;;3.10;2.88;;;;;;;32.36;67.91;100661.63;5025145;28;65586;-38
2023/10/06 06:26:52;;;;;;;3.55;3.25;;;;;;;32.40;67.67;100645.69;5030367;28;70236;-38
2023/10/06 06:29:24;;;;;;;3.20;2.90;;;;;;;32.37;67.80;100630.72;5036310;28;66077;-41
2023/10/06 06:31:55;;;;;;;2.75;2.55;;;;;;;32.28;67.82;100622.09;5036750;28;69766;-39
2023/10/06 06:34:27;;;;;;;3.05;2.85;;;;;;;32.48;67.66;100648.09;5037090;28;66195;-38
2023/10/06 06:37:00;;;;;;;3.17;2.83;;;;;;;32.51;67.75;100641.38;5037528;28;70557;-38
2023/10/06 06:39:33;;;;;;;3.28;3.00;;;;;;;32.51;67.70;100630.50;5025436;28;66671;-38
2023/10/06 06:42:05;;;;;;;3.30;3.00;;;;;;;32.46;67.58;100610.34;5035812;28;68700;-37
2023/10/06 06:44:36;;;;;;;3.03;2.83;;;;;;;32.52;67.58;100621.31;5038856;28;66861;-38
2023/10/06 06:47:07;;;;;;;2.50;2.40;;;;;;;32.52;67.79;100621.31;5034848;28;70566;-39
2023/10/06 06:49:37;;;;;;;2.92;2.72;;;;;;;32.60;67.50;100626.38;5039792;28;66498;-38
2023/10/06 06:52:09;;;;;;;3.13;2.93;;;;;;;32.59;67.45;100619.28;5036609;28;69266;-38
2023/10/06 06:54:46;;;;;;;2.92;2.72;;;;;;;32.63;67.62;100617.75;5026054;28;65768;-38
2023/10/06 06:57:17;;;;;;;3.10;2.90;;;;;;;32.61;67.09;100598.16;5031962;28;70499;-39
2023/10/06 06:59:47;;;;;;;2.55;2.35;;;;;;;32.68;67.51;100593.41;5032943;28;66502;-39
2023/10/06 07:02:20;;;;;;;2.88;2.67;;;;;;;32.71;67.38;100596.47;5036572;28;70179;-38
2023/10/06 07:04:51;;;;;;;3.25;2.42;;;;;;;32.73;67.29;100590.78;5037004;28;67204;-38
2023/10/06 07:07:22;;;;;;;2.80;2.60;;;;;;;32.52;67.19;100543.41;5037493;28;70024;-37
2023/10/06 07:09:52;;;;;;;3.30;3.10;;;;;;;32.77;67.36;100575.69;5038329;28;66996;-38
2023/10/06 07:12:23;;;;;;;2.92;2.72;;;;;;;32.81;67.18;100574.13;5039231;28;69989;-38
2023/10/06 07:14:56;;;;;;;2.90;2.70;;;;;;;32.76;67.40;100563.16;5038750;28;65424;-38
2023/10/06 07:17:27;;;;;;;3.78;2.95;;;;;;;32.76;66.89;100568.59;5034571;28;69727;-37
2023/10/06 07:20:01;;;;;;;2.83;2.63;;;;;;;32.87;66.74;100578.59;5039369;28;66480;-38
2023/10/06 07:22:32;;;;;;;2.95;2.70;;;;;;;32.88;67.12;100566.66;5039747;28;70230;-38
2023/10/06 07:25:04;;;;;;;2.50;2.30;;;;;;;32.88;66.92;100555.81;5037580;28;66056;-38
2023/10/06 07:27:34;;;;;;;2.55;2.35;;;;;;;32.94;66.65;100548.56;5036463;28;70324;-39
2023/10/06 07:30:10;;;;;;;2.97;2.75;;;;;;;32.93;66.73;100542.31;5038693;28;66150;-38
2023/10/06 07:32:44;;;;;;;2.40;2.30;;;;;;;33.01;66.37;100549.28;5039811;28;70000;-38
2023/10/06 07:35:17;;;;;;;2.20;2.10;;;;;;;33.04;66.34;100556.13;5033014;28;66593;-39
2023/10/06 07:37:49;;;;;;;6.65;2.30;;;;;;;33.08;66.51;100552.69;5039424;28;70300;-38
2023/10/06 07:40:21;;;;;;;2.58;2.47;;;;;;;33.11;66.47;100546.75;5039578;28;65261;-38
2023/10/06 07:42:52;;;;;;;2.75;2.55;;;;;;;33.11;66.47;100543.22;5039061;28;69284;-39
2023/10/06 07:45:23;;;;;;;2.63;2.50;;;;;;;33.12;66.34;100542.97;5038571;28;66865;-40
2023/10/06 07:47:54;;;;;;;2.72;2.55;;;;;;;33.12;66.65;100545.66;5038432;28;70418;-38
2023/10/06 07:50:29;;;;;;;2.95;2.25;;;;;;;33.02;66.67;100517.50;5036309;28;66281;-38
2023/10/06 07:53:02;;;;;;;2.25;2.13;;;;;;;33.18;66.38;100537.63;5038819;28;70359;-39
2023/10/06 07:55:33;;;;;;;3.67;2.72;;;;;;;33.12;66.72;100518.50;5039150;28;66603;-39
2023/10/06 07:58:05;;;;;;;2.70;2.60;;;;;;;33.25;66.13;100541.03;5035505;28;70596;-39
2023/10/06 08:00:38;;;;;;;2.90;2.70;;;;;;;33.22;66.25;100528.75;5038538;28;65546;-40
2023/10/06 08:03:10;;;;;;;3.83;2.80;;;;;;;33.20;66.36;100519.19;5039153;28;70168;-38
2023/10/06 08:05:41;;;;;;;8.63;2.65;;;;;;;33.28;66.22;100532.38;5036998;28;66796;-38
2023/10/06 08:08:12;;;;;;;2.95;2.75;;;;;;;33.29;65.91;100534.84;5036990;28;70519;-37
2023/10/06 08:10:43;;;;;;;2.72;2.53;;;;;;;33.29;66.03;100539.44;5039221;28;66313;-38
2023/10/06 08:13:15;;;;;;;2.70;2.50;;;;;;;33.32;66.17;100538.94;5038057;28;70555;-38
2023/10/06 08:15:45;;;;;;;3.15;2.95;;;;;;;33.33;65.86;100527.84;5039572;28;65498;-39
2023/10/06 08:18:16;;;;;;;3.70;2.55;;;;;;;33.34;66.21;100521.31;5041201;28;70311;-38
2023/10/06 08:20:47;;;;;;;3.20;3.00;;;;;;;33.34;65.72;100531.38;5042280;28;67536;-41
2023/10/06 08:23:17;;;;;;;2.50;2.40;;;;;;;33.37;65.66;100531.72;5042937;28;70602;-38
2023/10/06 08:25:49;;;;;;;2.97;2.78;;;;;;;33.36;65.89;100521.09;5038179;28;66424;-37
2023/10/06 08:28:31;;;;;;;3.08;2.78;;;;;;;33.34;65.80;100510.44;5039986;28;69213;-38
2023/10/06 08:31:02;;;;;;;2.28;2.17;;;;;;;33.43;65.25;100523.66;5040051;28;65294;-39
2023/10/06 08:33:36;;;;;;;2.88;2.67;;;;;;;33.45;65.89;100521.50;5038188;28;70720;-40
2023/10/06 08:36:08;;;;;;;4.63;2.60;;;;;;;33.46;66.03;100526.72;5038396;28;66440;-38
2023/10/06 08:38:39;;;;;;;3.35;3.05;;;;;;;33.48;66.24;100545.50;5036349;28;69732;-41
2023/10/06 08:41:11;;;;;;;3.25;3.05;;;;;;;33.38;66.49;100560.56;5038312;28;66725;-40
2023/10/06 08:43:44;;;;;;;3.20;3.00;;;;;;;33.46;66.66;100574.81;5038048;28;70550;-40
2023/10/06 08:46:15;;;;;;;4.40;3.88;;;;;;;33.51;66.68;100583.06;5038022;28;66382;-40
2023/10/06 08:48:47;;;;;;;6.57;3.90;;;;;;;33.45;66.96;100548.69;5038166;28;69567;-40
2023/10/06 08:51:22;;;;;;;4.93;4.32;;;;;;;33.51;67.09;100536.84;5017764;28;65735;-39
2023/10/06 08:53:56;;;;;;;5.10;4.25;;;;;;;33.44;67.71;100520.69;5034155;28;70567;-39
2023/10/06 08:56:26;;;;;;;4.75;4.25;;;;;;;33.47;67.63;100531.06;5037079;28;65726;-39
2023/10/06 08:58:57;;;;;;;4.80;4.35;;;;;;;33.23;67.94;100503.19;5035111;28;70667;-39
2023/10/06 09:01:29;;;;;;;7.72;3.97;;;;;;;33.10;68.07;100482.59;5036079;28;66054;-39
2023/10/06 09:04:04;;;;;;;6.32;3.95;;;;;;;33.41;68.48;100531.25;5035996;28;69269;-38
2023/10/06 09:06:38;;;;;;;5.10;4.15;;;;;;;33.17;68.41;100496.03;5034430;28;65516;-39
2023/10/06 09:09:27;;;;;;;5.65;5.05;;;;;;;33.06;69.15;100486.06;5033622;28;69630;-40
2023/10/06 09:11:58;;;;;;;7.82;5.47;;;;;;;33.41;68.75;100531.25;5035419;28;66426;-40
2023/10/06 09:14:29;;;;;;;7.82;4.95;;;;;;;33.36;69.15;100532.78;5038148;28;69681;-40
2023/10/06 09:17:11;;;;;;;8.03;5.03;;;;;;;33.34;69.50;100553.13;5038222;28;66701;-39
2023/10/06 09:19:47;;;;;;;5.45;4.68;;;;;;;33.26;70.87;100570.66;5038008;28;70862;-40
2023/10/06 09:22:18;;;;;;;9.52;4.45;;;;;;;33.25;70.35;100593.50;5037576;28;67257;-40
2023/10/06 09:24:59;;;;;;;6.40;5.45;;;;;;;32.85;73.13;100545.41;5036700;28;70035;-38
2023/10/06 09:27:31;;;;;;;5.43;4.97;;;;;;;33.09;71.48;100591.53;5038896;28;66410;-38
2023/10/06 09:30:21;;;;;;;5.50;5.03;;;;;;;33.06;71.79;100594.75;5035756;28;70399;-39
2023/10/06 09:33:02;;;;;;;6.90;5.00;;;;;;;33.07;73.81;100588.22;5038011;28;66034;-38
2023/10/06 09:35:33;;;;;;;5.18;4.30;;;;;;;33.09;71.94;100580.66;5036916;28;70965;-40
2023/10/06 09:38:15;;;;;;;4.03;3.25;;;;;;;33.11;72.96;100575.81;5038151;28;65574;-39
2023/10/06 09:40:47;;;;;;;4.00;3.70;;;;;;;33.03;72.31;100582.47;5035328;28;70235;-38
2023/10/06 09:43:19;;;;;;;3.43;3.13;;;;;;;33.10;72.50;100598.66;5039337;28;66517;-40
2023/10/06 09:45:52;;;;;;;3.55;3.25;;;;;;;32.98;72.94;100595.09;5038377;28;69920;-41
2023/10/06 09:48:33;;;;;;;4.97;3.38;;;;;;;33.02;73.33;100583.53;5037057;28;67181;-40
2023/10/06 09:51:08;;;;;;;3.15;2.88;;;;;;;33.04;73.95;100605.03;5038479;28;70574;-40
2023/10/06 09:53:43;;;;;;;3.30;3.08;;;;;;;33.05;73.09;100606.69;5040487;28;66687;-40
2023/10/06 09:56:17;;;;;;;3.25;2.90;;;;;;;32.74;72.56;100542.75;5040685;28;69696;-39
2023/10/06 09:58:49;;;;;;;4.03;3.20;;;;;;;33.01;72.76;100614.47;5040256;28;65585;-38
2023/10/06 10:01:24;;;;;;;3.13;2.83;;;;;;;33.00;73.10;100625.59;5042060;28;70754;-40
2023/10/06 10:03:57;;;;;;;4.15;3.30;;;;;;;32.60;73.71;100574.78;5037693;28;65794;-38
2023/10/06 10:06:29;;;;;;;5.45;3.22;;;;;;;32.88;73.64;100637.31;5034987;28;70962;-39
2023/10/06 10:08:59;;;;;;;3.43;3.13;;;;;;;32.87;73.54;100632.91;5039226;28;66170;-40
2023/10/06 10:11:39;;;;;;;3.90;3.60;;;;;;;32.74;75.10;100646.78;5043202;28;70090;-39
2023/10/06 10:14:49;;;;;;;3.33;2.85;;;;;;;32.65;75.41;100649.03;5036978;28;67766;-39
2023/10/06 10:17:29;;;;;;;3.13;2.83;;;;;;;32.72;73.83;100673.34;5036358;28;70735;-39
2023/10/06 10:20:00;;;;;;;4.20;3.35;;;;;;;32.73;73.36;100677.72;5037625;28;66425;-39
2023/10/06 10:22:33;;;;;;;6.15;2.53;;;;;;;32.70;73.30;100664.59;5035351;28;69959;-39
2023/10/06 10:25:05;;;;;;;3.92;3.20;;;;;;;32.35;73.17;100619.28;5037294;28;65591;-39
2023/10/06 10:28:26;;;;;;;3.13;2.83;;;;;;;32.56;74.44;100693.06;5031083;28;69829;-38
2023/10/06 10:31:00;;;;;;;3.30;3.00;;;;;;;32.63;73.22;100701.94;5035632;28;66693;-41
2023/10/06 10:33:38;;;;;;;5.43;3.40;;;;;;;32.57;73.60;100727.31;5039540;28;70125;-39
2023/10/06 10:36:16;;;;;;;3.42;3.15;;;;;;;32.56;73.26;100744.66;5040766;28;65530;-39
2023/10/06 10:39:29;;;;;;;5.47;5.07;;;;;;;32.03;74.54;100673.06;5043258;28;70307;-42
2023/10/06 10:42:00;;;;;;;11.05;8.32;;;;;;;32.45;73.69;100725.38;5041008;28;65932;-38
2023/10/06 10:44:30;;;;;;;8.95;8.25;;;;;;;32.43;73.83;100727.53;5041048;28;69704;-39
2023/10/06 10:47:02;;;;;;;8.75;8.10;;;;;;;32.10;73.99;100691.97;5041723;28;65997;-41
2023/10/06 10:49:33;;;;;;;9.52;8.70;;;;;;;32.29;74.05;100745.09;5042458;28;69819;-39
2023/10/06 10:52:09;;;;;;;8.20;7.43;;;;;;;32.28;75.10;100746.13;5043487;28;65947;-39
2023/10/06 10:54:42;;;;;;;7.82;7.22;;;;;;;32.08;74.76;100691.34;5040557;28;69394;-39
2023/10/06 10:57:21;;;;;;;7.38;6.68;;;;;;;32.20;75.95;100722.03;5036008;28;65385;-39
2023/10/06 11:00:01;;;;;;;7.22;6.63;;;;;;;32.17;76.58;100706.22;5040392;28;70052;-40
2023/10/06 11:03:03;;;;;;;6.67;6.00;;;;;;;31.94;76.22;100691.56;5043337;28;65707;-39
2023/10/06 11:05:37;;;;;;;7.53;6.03;;;;;;;32.14;75.60;100712.13;5042440;28;70751;-39
2023/10/06 11:08:07;;;;;;;6.18;5.78;;;;;;;32.10;76.00;100710.94;5042968;28;66953;-39
2023/10/06 11:10:38;;;;;;;6.65;6.07;;;;;;;32.11;75.94;100707.16;5041297;28;70339;-38
2023/10/06 11:13:19;;;;;;;6.07;5.63;;;;;;;32.01;77.11;100705.84;5037721;28;65232;-39
2023/10/06 11:15:49;;;;;;;5.70;5.30;;;;;;;31.98;76.56;100709.03;5039985;28;70928;-39
2023/10/06 11:18:22;;;;;;;5.25;4.85;;;;;;;32.01;76.47;100719.44;5042841;28;66414;-39
2023/10/06 11:20:54;;;;;;;5.43;4.93;;;;;;;31.95;77.26;100736.59;5041329;28;69287;-39
2023/10/06 11:23:26;;;;;;;4.75;4.38;;;;;;;31.95;76.79;100741.22;5042393;28;66820;-37
2023/10/06 11:25:56;;;;;;;4.90;4.53;;;;;;;31.86;77.54;100753.41;5042532;28;71462;-39
2023/10/06 11:28:41;;;;;;;4.57;4.20;;;;;;;31.42;78.51;100704.75;5043389;28;66288;-40
2023/10/06 11:31:12;;;;;;;5.32;4.93;;;;;;;31.85;77.82;100784.31;5037656;28;70181;-41
2023/10/06 11:33:43;;;;;;;5.03;4.60;;;;;;;31.81;77.87;100781.22;5039741;28;67490;-47
2023/10/06 11:36:16;;;;;;;6.93;4.40;;;;;;;31.80;77.75;100776.88;5044060;28;69868;-39
2023/10/06 11:38:47;;;;;;;4.78;4.38;;;;;;;31.75;78.45;100780.25;5045437;28;66640;-39
2023/10/06 11:41:24;;;;;;;4.40;4.10;;;;;;;31.58;79.13;100761.06;5045309;28;70108;-40
2023/10/06 11:43:55;;;;;;;4.75;4.35;;;;;;;31.78;78.00;100789.81;5042310;28;66298;-40
2023/10/06 11:46:27;;;;;;;4.45;4.15;;;;;;;31.72;78.31;100804.31;5042025;28;68721;-38
2023/10/06 11:49:11;;;;;;;5.28;4.88;;;;;;;31.61;79.79;100812.13;5041045;28;66023;-39
2023/10/06 11:51:43;;;;;;;8.98;4.35;;;;;;;31.56;78.45;100803.84;5042619;28;70435;-39
2023/10/06 11:54:14;;;;;;;5.22;4.93;;;;;;;31.63;78.87;100827.38;5038007;28;65709;-40
2023/10/06 11:56:49;;;;;;;5.40;4.90;;;;;;;31.59;79.43;100835.97;5040393;28;70471;-39
2023/10/06 11:59:22;;;;;;;5.93;5.43;;;;;;;31.54;78.90;100832.25;5042231;28;66501;-40
2023/10/06 12:01:53;;;;;;;7.18;4.82;;;;;;;31.58;78.86;100852.44;5041815;28;69648;-40
2023/10/06 12:04:30;;;;;;;4.82;4.50;;;;;;;31.57;79.12;100861.63;5041452;28;66258;-40
2023/10/06 12:07:01;;;;;;;6.80;5.47;;;;;;;31.52;79.54;100862.31;5042023;28;70564;-39
2023/10/06 12:09:34;;;;;;;5.15;4.75;;;;;;;31.51;79.20;100854.38;5055569;28;65988;-41
2023/10/06 12:12:05;;;;;;;5.30;4.90;;;;;;;31.49;79.82;100857.34;5039484;28;70145;-41
2023/10/06 12:14:38;;;;;;;5.13;4.72;;;;;;;31.52;79.69;100873.16;5032189;28;65850;-40
2023/10/06 12:17:12;;;;;;;4.78;4.45;;;;;;;31.51;79.63;100870.66;5040130;28;71608;-41
2023/10/06 12:19:43;;;;;;;5.70;5.28;;;;;;;31.52;79.93;100873.16;5037582;28;66793;-39
2023/10/06 12:22:13;;;;;;;5.82;5.43;;;;;;;31.49;80.07;100879.03;5046051;28;70063;-40
2023/10/06 12:24:48;;;;;;;6.10;5.50;;;;;;;31.47;80.41;100886.53;5041220;28;66715;-41
2023/10/06 12:27:19;;;;;;;5.75;5.25;;;;;;;31.45;80.11;100894.06;5040329;28;69786;-40
2023/10/06 12:29:55;;;;;;;5.15;4.75;;;;;;;31.41;80.60;100887.44;5039634;28;66675;-39
2023/10/06 12:32:27;;;;;;;5.25;4.75;;;;;;;31.43;80.55;100896.19;5056588;28;70042;-39
2023/10/06 12:34:59;;;;;;;5.43;5.13;;;;;;;31.42;80.87;100905.34;5039865;28;65552;-41
2023/10/06 12:37:31;;;;;;;5.50;5.10;;;;;;;31.42;80.78;100899.94;5040466;28;70411;-40
2023/10/06 12:40:03;;;;;;;5.78;5.25;;;;;;;31.37;81.20;100895.19;5041404;28;65826;-40
2023/10/06 12:42:34;;;;;;;5.53;5.20;;;;;;;31.34;80.97;100887.50;5042494;28;70557;-39
2023/10/06 12:45:12;;;;;;;5.20;4.82;;;;;;;31.37;81.87;100902.47;5041101;28;65795;-40
2023/10/06 12:47:47;;;;;;;5.18;4.78;;;;;;;31.37;81.20;100897.06;5041956;28;70307;-40
2023/10/06 12:50:20;;;;;;;5.35;4.95;;;;;;;31.36;81.21;100900.84;5041935;28;66978;-39
2023/10/06 12:52:52;;;;;;;5.32;4.93;;;;;;;31.35;81.43;100907.28;5048332;28;70202;-39
2023/10/06 12:55:24;;;;;;;5.75;5.25;;;;;;;31.29;81.47;100890.03;5040909;28;66698;-38
2023/10/06 12:57:55;;;;;;;6.25;5.75;;;;;;;31.14;81.48;100865.97;5040122;28;69227;-39
2023/10/06 13:00:27;;;;;;;5.90;5.50;;;;;;;31.33;81.76;100901.25;5041374;28;65484;-40
2023/10/06 13:02:58;;;;;;;5.68;5.32;;;;;;;31.34;81.58;100903.75;5040020;28;69990;-39
2023/10/06 13:05:29;;;;;;;5.57;5.18;;;;;;;31.30;81.58;100897.09;5041197;28;66518;-39
2023/10/06 13:08:01;;;;;;;9.13;5.50;;;;;;;31.19;82.27;100892.41;5039346;28;70890;-40
2023/10/06 13:10:32;;;;;;;5.70;5.28;;;;;;;31.27;81.99;100913.00;5043401;28;66531;-39
2023/10/06 13:13:06;;;;;;;5.53;4.97;;;;;;;31.27;81.98;100918.41;5041203;28;69774;-39
2023/10/06 13:15:37;;;;;;;6.40;5.93;;;;;;;31.29;81.94;100925.28;5039511;28;64767;-39
2023/10/06 13:18:08;;;;;;;6.00;5.60;;;;;;;31.27;82.46;100923.84;5039482;28;70399;-38
2023/10/06 13:20:38;;;;;;;7.97;5.35;;;;;;;31.28;82.45;100920.88;5041099;28;66791;-39
2023/10/06 13:23:10;;;;;;;6.00;5.50;;;;;;;31.27;82.71;100923.84;5039640;28;71453;-39
2023/10/06 13:25:41;;;;;;;6.15;5.25;;;;;;;31.26;82.85;100924.84;5038885;28;66054;-39
2023/10/06 13:28:16;;;;;;;6.45;5.85;;;;;;;31.26;82.49;100923.00;5040558;28;70086;-39
2023/10/06 13:30:47;;;;;;;19.80;6.25;;;;;;;31.04;86.55;100919.84;5037903;28;65402;-39
2023/10/06 13:33:21;;;;;;;8.18;6.18;;;;;;;31.09;85.69;100930.88;5040790;28;70816;-39
2023/10/06 13:35:52;;;;;;;7.32;6.40;;;;;;;31.00;86.13;100940.28;5039177;28;66336;-40
2023/10/06 13:38:25;;;;;;;9.93;6.43;;;;;;;31.00;87.13;100951.13;5040073;28;70274;-38
2023/10/06 13:40:56;;;;;;;8.30;6.75;;;;;;;31.02;86.31;100949.03;5032909;28;65899;-40
2023/10/06 13:43:26;;;;;;;15.30;7.40;;;;;;;30.99;86.01;100960.31;5040903;28;70063;-39
2023/10/06 13:45:59;;;;;;;9.00;7.72;;;;;;;30.94;87.65;100963.66;5040265;28;66630;-40
2023/10/06 13:48:31;;;;;;;8.40;7.57;;;;;;;30.90;88.00;100964.34;5040227;28;69474;-40
2023/10/06 13:51:02;;;;;;;;;;;;;;;30.59;88.23;100960.53;5041295;28;66751;-38
2023/10/06 13:53:41;;;;;;;11.75;7.22;;;;;;;30.70;85.09;100973.38;5041833;28;69579;-39
2023/10/06 13:56:12;;;;;;;9.07;7.47;;;;;;;30.42;83.66;100940.41;5039251;28;66899;-39
2023/10/06 13:58:44;;;;;;;9.27;7.45;;;;;;;30.53;83.25;100966.78;5039759;28;70211;-37
2023/10/06 14:01:18;;;;;;;10.98;7.45;;;;;;;30.44;81.83;100978.91;5042691;28;66314;-38
2023/10/06 14:03:52;;;;;;;9.35;7.47;;;;;;;30.26;80.61;100961.50;5039625;28;69116;-39
2023/10/06 14:06:22;;;;;;;7.47;6.80;;;;;;;30.36;80.50;100976.47;5040544;28;66739;-40
2023/10/06 14:08:53;;;;;;;7.53;6.93;;;;;;;30.19;78.13;100974.19;5040195;28;70712;-38
2023/10/06 14:11:25;;;;;;;8.70;6.40;;;;;;;29.81;77.90;100915.44;5053722;28;66229;-41
2023/10/06 14:14:02;;;;;;;6.70;6.18;;;;;;;30.13;77.21;100977.75;5042305;28;69732;-39
2023/10/06 14:16:36;;;;;;;6.43;5.93;;;;;;;30.02;75.25;100991.94;5036424;28;66625;-41
2023/10/06 14:19:09;;;;;;;10.93;6.22;;;;;;;29.88;75.29;100974.09;5039137;28;69850;-39
2023/10/06 14:21:39;;;;;;;6.18;5.72;;;;;;;29.92;73.88;100996.94;5030762;28;65447;-38